Time;durP1;ratioP1;P1;durP2;ratioP2;P2;SDS_P1;SDS_P2;PMS_P1;PMS_P2;Temp;Humidity;BMP_temperature;BMP_pressure;BME280_temperature;BME280_humidity;BME280_pressure;Samples;Min_cycle;Max_cycle;Signal;HPM_P1;HPM_P2
2023/12/23 00:02:14;;;;;;;5.70;3.10;;;;;;;;;;5011533;28;20030;-64
2023/12/23 00:04:41;;;;;;;3.63;2.80;;;;;;;;;;5010987;28;20037;-65
2023/12/23 00:07:07;;;;;;;3.92;2.63;;;;;;;;;;5011282;28;20026;-65
2023/12/23 00:09:33;;;;;;;5.28;3.15;;;;;;;;;;5011392;28;20038;-65
2023/12/23 00:11:59;;;;;;;4.72;2.95;;;;;;;;;;5007420;28;20144;-65
2023/12/23 00:14:25;;;;;;;4.05;2.80;;;;;;;;;;5011388;28;20022;-65
2023/12/23 00:16:51;;;;;;;6.32;3.10;;;;;;;;;;5010976;28;20495;-65
2023/12/23 00:19:17;;;;;;;3.47;2.35;;;;;;;;;;5013644;28;20028;-65
2023/12/23 00:21:43;;;;;;;3.30;2.90;;;;;;;;;;5015029;28;20085;-65
2023/12/23 00:24:09;;;;;;;3.80;2.45;;;;;;;;;;5015024;28;20030;-65
2023/12/23 00:26:35;;;;;;;3.80;2.58;;;;;;;;;;5013597;28;20116;-65
2023/12/23 00:29:01;;;;;;;6.07;2.65;;;;;;;;;;5014804;28;20037;-65
2023/12/23 00:31:27;;;;;;;6.97;2.88;;;;;;;;;;5014972;28;20022;-64
2023/12/23 00:33:53;;;;;;;3.88;2.25;;;;;;;;;;5014688;28;20058;-65
2023/12/23 00:36:19;;;;;;;3.90;2.63;;;;;;;;;;5014675;28;20104;-65
2023/12/23 00:38:45;;;;;;;6.38;3.08;;;;;;;;;;5014713;28;20467;-64
2023/12/23 00:41:10;;;;;;;4.75;2.53;;;;;;;;;;5013135;28;20022;-65
2023/12/23 00:43:36;;;;;;;3.75;2.17;;;;;;;;;;5014684;28;20101;-65
2023/12/23 00:46:02;;;;;;;4.97;1.98;;;;;;;;;;5014344;28;20029;-64
2023/12/23 00:48:28;;;;;;;3.55;1.95;;;;;;;;;;5014793;28;20022;-65
2023/12/23 00:50:54;;;;;;;4.90;2.10;;;;;;;;;;5014427;28;20033;-64
2023/12/23 00:53:25;;;;;;;3.45;2.03;;;;;;;;;;5013097;28;20053;-65
2023/12/23 00:55:51;;;;;;;4.38;1.88;;;;;;;;;;5013197;28;20022;-65
2023/12/23 00:58:17;;;;;;;4.32;2.20;;;;;;;;;;5013050;28;20033;-65
2023/12/23 01:00:43;;;;;;;3.03;1.85;;;;;;;;;;5014204;28;20033;-65
2023/12/23 01:03:09;;;;;;;2.92;2.10;;;;;;;;;;5013140;28;20117;-64
2023/12/23 01:05:35;;;;;;;6.15;2.20;;;;;;;;;;5012649;28;20050;-65
2023/12/23 01:08:01;;;;;;;4.70;2.50;;;;;;;;;;5014336;28;20499;-64
2023/12/23 01:10:27;;;;;;;4.60;2.08;;;;;;;;;;5013981;28;20033;-65
2023/12/23 01:12:54;;;;;;;4.80;2.20;;;;;;;;;;5013819;28;20030;-64
2023/12/23 01:15:20;;;;;;;2.97;1.77;;;;;;;;;;5013829;28;20022;-64
2023/12/23 01:17:46;;;;;;;4.85;2.00;;;;;;;;;;5012453;28;20033;-63
2023/12/23 01:20:12;;;;;;;5.75;2.13;;;;;;;;;;5010092;28;20387;-64
2023/12/23 01:22:38;;;;;;;4.45;1.88;;;;;;;;;;5016142;28;20391;-64
2023/12/23 01:25:04;;;;;;;5.03;2.15;;;;;;;;;;5012439;28;20021;-65
2023/12/23 01:27:30;;;;;;;2.70;1.75;;;;;;;;;;5013269;28;20420;-64
2023/12/23 01:29:56;;;;;;;3.08;2.05;;;;;;;;;;5018140;28;20032;-64
2023/12/23 01:32:22;;;;;;;2.83;1.90;;;;;;;;;;5032299;28;20033;-63
2023/12/23 01:34:48;;;;;;;3.30;2.03;;;;;;;;;;5011764;28;20484;-64
2023/12/23 01:37:14;;;;;;;2.58;2.15;;;;;;;;;;5019841;28;20036;-64
2023/12/23 01:39:40;;;;;;;3.90;2.13;;;;;;;;;;5028528;28;20107;-65
2023/12/23 01:42:06;;;;;;;5.55;2.25;;;;;;;;;;5013494;28;20464;-64
2023/12/23 01:44:32;;;;;;;4.53;2.33;;;;;;;;;;5023827;28;20068;-64
2023/12/23 01:46:59;;;;;;;3.00;1.98;;;;;;;;;;5033403;28;20033;-64
2023/12/23 01:49:25;;;;;;;3.45;2.42;;;;;;;;;;5032134;28;20064;-64
2023/12/23 01:51:52;;;;;;;4.30;2.10;;;;;;;;;;5013490;28;20034;-65
2023/12/23 01:54:19;;;;;;;3.92;2.67;;;;;;;;;;5013246;28;20052;-64
2023/12/23 01:56:47;;;;;;;3.53;2.10;;;;;;;;;;5013269;28;20452;-65
2023/12/23 01:59:13;;;;;;;3.80;2.33;;;;;;;;;;5012668;28;20080;-64
2023/12/23 02:01:40;;;;;;;4.80;2.78;;;;;;;;;;5027158;28;20589;-64
2023/12/23 02:04:06;;;;;;;4.80;2.45;;;;;;;;;;5011489;28;20400;-64
2023/12/23 02:06:32;;;;;;;3.08;2.10;;;;;;;;;;5009243;28;20033;-65
2023/12/23 02:08:58;;;;;;;6.15;2.53;;;;;;;;;;5010387;28;20045;-65
2023/12/23 02:11:43;;;;;;;5.60;2.17;;;;;;;;;;5009867;28;20416;-65
2023/12/23 02:14:23;;;;;;;2.55;2.20;;;;;;;;;;4998254;28;20638;-64
2023/12/23 02:16:50;;;;;;;5.53;2.63;;;;;;;;;;5010016;28;20026;-65
2023/12/23 02:19:15;;;;;;;4.05;2.42;;;;;;;;;;5008017;28;20033;-65
2023/12/23 02:21:41;;;;;;;4.53;2.42;;;;;;;;;;5010086;28;20026;-64
2023/12/23 02:24:07;;;;;;;5.53;2.80;;;;;;;;;;5011967;28;20333;-65
2023/12/23 02:26:34;;;;;;;7.63;3.22;;;;;;;;;;5007001;28;20101;-64
2023/12/23 02:32:05;;;;;;;4.03;2.58;;;;;;;;;;5010520;28;20045;-65
2023/12/23 02:34:31;;;;;;;4.53;2.65;;;;;;;;;;5016910;28;20072;-65
2023/12/23 02:36:57;;;;;;;4.20;2.80;;;;;;;;;;5017668;28;20428;-64
2023/12/23 02:39:23;;;;;;;3.65;2.80;;;;;;;;;;5010520;28;20033;-65
2023/12/23 02:41:49;;;;;;;5.95;2.63;;;;;;;;;;5010356;28;20597;-65
2023/12/23 02:44:15;;;;;;;3.75;2.78;;;;;;;;;;5010832;28;20029;-65
2023/12/23 02:46:41;;;;;;;6.13;2.97;;;;;;;;;;5009873;28;20467;-65
2023/12/23 02:49:07;;;;;;;4.75;3.25;;;;;;;;;;5010403;28;20033;-64
2023/12/23 02:51:33;;;;;;;3.53;2.65;;;;;;;;;;5010707;28;20018;-65
2023/12/23 02:53:59;;;;;;;3.47;2.42;;;;;;;;;;5011527;28;20161;-65
2023/12/23 02:56:25;;;;;;;6.63;3.03;;;;;;;;;;5010585;28;20073;-64
2023/12/23 02:58:51;;;;;;;3.25;2.30;;;;;;;;;;5011026;28;20038;-65
2023/12/23 03:01:19;;;;;;;2.95;1.98;;;;;;;;;;5010091;28;20484;-64
2023/12/23 03:03:45;;;;;;;3.58;2.88;;;;;;;;;;5010533;28;20488;-65
2023/12/23 03:06:15;;;;;;;3.15;2.72;;;;;;;;;;5010447;28;20443;-64
2023/12/23 03:08:41;;;;;;;3.50;2.45;;;;;;;;;;5009780;28;20586;-65
2023/12/23 03:11:07;;;;;;;3.22;2.25;;;;;;;;;;5009995;28;20080;-65
2023/12/23 03:13:33;;;;;;;3.63;2.05;;;;;;;;;;5009717;28;20133;-64
2023/12/23 03:15:59;;;;;;;3.65;3.00;;;;;;;;;;5010271;28;20038;-65
2023/12/23 03:18:25;;;;;;;5.05;3.03;;;;;;;;;;5009524;28;20065;-64
2023/12/23 03:20:51;;;;;;;4.53;2.92;;;;;;;;;;5009414;28;20386;-64
2023/12/23 03:23:17;;;;;;;3.30;2.58;;;;;;;;;;5009608;28;20030;-64
2023/12/23 03:25:43;;;;;;;3.58;2.72;;;;;;;;;;5008841;28;20399;-64
2023/12/23 03:28:09;;;;;;;4.05;2.97;;;;;;;;;;5008657;28;20037;-64
2023/12/23 03:30:35;;;;;;;3.42;2.40;;;;;;;;;;5009190;28;20040;-64
2023/12/23 03:33:01;;;;;;;4.13;2.70;;;;;;;;;;5009388;28;20056;-64
2023/12/23 03:35:27;;;;;;;5.22;3.38;;;;;;;;;;5008871;28;20022;-64
2023/12/23 03:37:53;;;;;;;7.47;2.85;;;;;;;;;;5009347;28;20468;-64
2023/12/23 03:40:19;;;;;;;6.70;3.08;;;;;;;;;;5009264;28;20041;-65
2023/12/23 03:42:46;;;;;;;7.50;3.47;;;;;;;;;;5009353;28;20029;-64
2023/12/23 03:45:12;;;;;;;4.90;2.80;;;;;;;;;;5007342;28;20332;-64
2023/12/23 03:47:39;;;;;;;6.68;3.20;;;;;;;;;;5009398;28;20034;-64
2023/12/23 03:50:06;;;;;;;5.05;3.33;;;;;;;;;;5010118;28;20087;-64
2023/12/23 03:52:32;;;;;;;4.05;3.13;;;;;;;;;;5009499;28;20452;-64
2023/12/23 03:55:08;;;;;;;6.55;3.42;;;;;;;;;;5011958;28;20033;-64
2023/12/23 03:57:34;;;;;;;5.10;3.20;;;;;;;;;;5011125;28;20030;-64
2023/12/23 04:00:00;;;;;;;4.38;3.08;;;;;;;;;;5010902;28;20477;-64
2023/12/23 04:02:26;;;;;;;5.18;2.85;;;;;;;;;;5013777;28;20032;-64
2023/12/23 04:04:52;;;;;;;4.38;2.95;;;;;;;;;;5023129;28;20084;-64
2023/12/23 04:07:18;;;;;;;7.80;3.63;;;;;;;;;;5017418;28;20034;-64
2023/12/23 04:09:45;;;;;;;6.00;3.63;;;;;;;;;;5014640;28;20029;-64
2023/12/23 04:21:39;;;;;;;5.95;3.25;;;;;;;;;;5001663;28;20472;-64
2023/12/23 04:24:05;;;;;;;4.38;3.55;;;;;;;;;;5042263;28;20026;-65
2023/12/23 04:26:31;;;;;;;4.65;3.42;;;;;;;;;;5014687;28;20029;-64
2023/12/23 04:28:58;;;;;;;6.32;3.83;;;;;;;;;;5013547;28;20026;-64
2023/12/23 04:31:24;;;;;;;4.78;3.30;;;;;;;;;;5028397;28;20013;-64
2023/12/23 04:33:50;;;;;;;6.20;3.22;;;;;;;;;;5014525;28;20049;-64
2023/12/23 04:36:19;;;;;;;7.97;3.75;;;;;;;;;;5014954;28;20531;-64
2023/12/23 04:38:44;;;;;;;5.70;3.10;;;;;;;;;;5014801;28;20329;-64
2023/12/23 04:41:10;;;;;;;6.57;3.60;;;;;;;;;;5013173;28;20084;-64
2023/12/23 04:43:37;;;;;;;5.22;3.13;;;;;;;;;;5012045;28;20029;-64
2023/12/23 04:46:03;;;;;;;8.82;3.08;;;;;;;;;;5013492;28;20030;-64
2023/12/23 04:48:29;;;;;;;4.40;3.53;;;;;;;;;;5013142;28;20168;-64
2023/12/23 04:50:55;;;;;;;5.28;3.78;;;;;;;;;;5013578;28;20033;-64
2023/12/23 04:53:25;;;;;;;5.35;3.80;;;;;;;;;;5013481;28;20034;-64
2023/12/23 04:55:54;;;;;;;6.78;3.80;;;;;;;;;;5013051;28;20113;-65
2023/12/23 04:58:20;;;;;;;7.43;4.28;;;;;;;;;;5013119;28;20033;-64
2023/12/23 05:00:47;;;;;;;6.05;3.90;;;;;;;;;;5012839;28;20365;-64
2023/12/23 05:03:13;;;;;;;5.57;3.40;;;;;;;;;;5008503;28;20026;-65
2023/12/23 05:05:41;;;;;;;5.18;3.38;;;;;;;;;;5022432;28;20030;-64
2023/12/23 05:08:07;;;;;;;5.90;3.45;;;;;;;;;;5013896;28;20022;-64
2023/12/23 05:10:33;;;;;;;5.43;3.65;;;;;;;;;;5013959;28;20034;-64
2023/12/23 05:12:59;;;;;;;6.47;3.50;;;;;;;;;;5011439;28;20052;-64
2023/12/23 05:15:25;;;;;;;6.63;3.40;;;;;;;;;;5013595;28;20038;-64
2023/12/23 05:17:51;;;;;;;4.75;3.13;;;;;;;;;;5014080;28;20049;-64
2023/12/23 05:20:17;;;;;;;4.65;3.22;;;;;;;;;;5013978;28;20032;-64
2023/12/23 05:22:43;;;;;;;6.20;3.28;;;;;;;;;;5011691;28;20026;-65
2023/12/23 05:25:10;;;;;;;4.20;3.15;;;;;;;;;;5012966;28;20075;-64
2023/12/23 05:27:36;;;;;;;3.53;3.10;;;;;;;;;;5013341;28;20033;-64
2023/12/23 05:30:02;;;;;;;5.45;3.00;;;;;;;;;;5013218;28;20432;-64
2023/12/23 05:32:28;;;;;;;5.90;3.92;;;;;;;;;;5013130;28;20038;-63
2023/12/23 05:34:54;;;;;;;4.60;3.20;;;;;;;;;;5011874;28;20033;-64
2023/12/23 05:37:20;;;;;;;5.68;3.90;;;;;;;;;;5007067;28;20038;-64
2023/12/23 05:39:48;;;;;;;3.50;2.92;;;;;;;;;;5010832;28;20518;-64
2023/12/23 05:42:14;;;;;;;5.88;3.30;;;;;;;;;;5012754;28;20427;-64
2023/12/23 05:44:40;;;;;;;3.55;3.00;;;;;;;;;;5011377;28;20044;-64
2023/12/23 05:47:06;;;;;;;6.10;3.13;;;;;;;;;;5011761;28;20034;-65
2023/12/23 05:49:32;;;;;;;6.80;3.55;;;;;;;;;;5001931;28;20050;-65
2023/12/23 05:51:58;;;;;;;4.63;3.45;;;;;;;;;;5006473;28;20373;-65
2023/12/23 05:54:24;;;;;;;6.63;3.70;;;;;;;;;;5007192;28;20030;-64
2023/12/23 05:56:50;;;;;;;5.45;3.08;;;;;;;;;;5012815;28;20038;-66
2023/12/23 05:59:16;;;;;;;4.63;2.90;;;;;;;;;;5013542;28;20347;-64
2023/12/23 06:01:42;;;;;;;4.32;2.72;;;;;;;;;;5012831;28;20089;-64
2023/12/23 06:04:42;;;;;;;3.80;2.78;;;;;;;;;;5010004;28;20437;-65
2023/12/23 06:07:08;;;;;;;4.00;2.83;;;;;;;;;;5012055;28;20017;-64
2023/12/23 06:09:34;;;;;;;5.78;3.30;;;;;;;;;;5010315;28;20310;-64
2023/12/23 06:12:00;;;;;;;4.78;2.88;;;;;;;;;;5011443;28;20037;-64
2023/12/23 06:14:26;;;;;;;5.10;3.40;;;;;;;;;;5005093;28;20545;-64
2023/12/23 06:16:52;;;;;;;4.63;3.10;;;;;;;;;;5010294;28;20018;-64
2023/12/23 06:19:18;;;;;;;5.22;3.03;;;;;;;;;;5012919;28;20388;-64
2023/12/23 06:21:46;;;;;;;6.57;2.67;;;;;;;;;;5012850;28;20034;-64
2023/12/23 06:24:13;;;;;;;5.20;3.72;;;;;;;;;;5011448;28;20030;-64
2023/12/23 06:26:39;;;;;;;5.40;3.70;;;;;;;;;;5013005;28;20033;-64
2023/12/23 06:29:05;;;;;;;4.90;3.08;;;;;;;;;;5012637;28;20392;-64
2023/12/23 06:31:31;;;;;;;3.92;3.13;;;;;;;;;;5012366;28;20034;-64
2023/12/23 06:33:57;;;;;;;5.13;3.08;;;;;;;;;;5012388;28;20078;-64
2023/12/23 06:36:23;;;;;;;6.57;3.47;;;;;;;;;;5010778;28;20041;-64
2023/12/23 06:38:48;;;;;;;5.18;2.92;;;;;;;;;;4999529;28;20022;-65
2023/12/23 06:41:15;;;;;;;5.43;3.42;;;;;;;;;;5012083;28;20050;-64
2023/12/23 06:43:41;;;;;;;7.72;3.63;;;;;;;;;;5011624;28;20026;-64
2023/12/23 06:46:10;;;;;;;4.35;3.05;;;;;;;;;;5012005;28;20026;-64
2023/12/23 06:48:36;;;;;;;4.95;2.83;;;;;;;;;;5011747;28;20049;-64
2023/12/23 06:51:03;;;;;;;5.22;3.33;;;;;;;;;;5009965;28;20116;-65
2023/12/23 06:53:29;;;;;;;6.30;3.30;;;;;;;;;;5011530;28;20120;-64
2023/12/23 06:55:55;;;;;;;4.68;3.03;;;;;;;;;;5012071;28;20109;-64
2023/12/23 06:58:23;;;;;;;5.30;3.05;;;;;;;;;;5011533;28;20104;-64
2023/12/23 07:00:49;;;;;;;3.50;2.83;;;;;;;;;;5007947;28;20018;-65
2023/12/23 07:03:15;;;;;;;6.00;3.67;;;;;;;;;;5010414;28;20029;-64
2023/12/23 07:05:41;;;;;;;3.42;3.00;;;;;;;;;;5004408;28;20029;-64
2023/12/23 07:08:07;;;;;;;4.63;3.58;;;;;;;;;;5008262;28;20029;-64
2023/12/23 07:10:33;;;;;;;5.47;3.47;;;;;;;;;;5008829;28;20030;-64
2023/12/23 07:12:59;;;;;;;6.60;3.45;;;;;;;;;;5009120;28;20048;-64
2023/12/23 07:15:25;;;;;;;4.78;3.30;;;;;;;;;;5009993;28;20028;-64
2023/12/23 07:17:51;;;;;;;6.75;3.22;;;;;;;;;;5008508;28;20844;-64
2023/12/23 07:20:17;;;;;;;6.20;3.17;;;;;;;;;;5010638;28;20033;-64
2023/12/23 07:22:43;;;;;;;4.72;3.53;;;;;;;;;;5012080;28;20049;-64
2023/12/23 07:25:09;;;;;;;6.05;3.35;;;;;;;;;;5008227;28;20038;-64
2023/12/23 07:27:35;;;;;;;5.13;2.88;;;;;;;;;;5006468;28;20386;-64
2023/12/23 07:30:01;;;;;;;5.70;3.40;;;;;;;;;;5011193;28;20053;-64
2023/12/23 07:32:27;;;;;;;4.18;2.95;;;;;;;;;;5006961;28;20037;-64
2023/12/23 07:41:00;;;;;;;6.10;2.88;;;;;;;;;;5004461;28;20044;-65
2023/12/23 07:43:41;;;;;;;5.45;3.30;;;;;;;;;;5011459;28;20454;-64
2023/12/23 07:46:08;;;;;;;6.60;2.90;;;;;;;;;;5004382;28;20052;-64
2023/12/23 07:48:34;;;;;;;4.63;2.65;;;;;;;;;;5006499;28;20061;-65
2023/12/23 07:51:04;;;;;;;3.85;3.00;;;;;;;;;;5009796;28;20458;-63
2023/12/23 07:53:30;;;;;;;4.95;3.00;;;;;;;;;;4998072;28;20038;-66
2023/12/23 07:55:56;;;;;;;3.92;3.30;;;;;;;;;;5011710;28;20034;-64
2023/12/23 07:58:22;;;;;;;7.53;3.90;;;;;;;;;;5011804;28;20038;-64
2023/12/23 08:00:48;;;;;;;4.72;3.10;;;;;;;;;;5011572;28;20057;-64
2023/12/23 08:03:14;;;;;;;8.13;3.88;;;;;;;;;;5011474;28;20051;-64
2023/12/23 08:05:40;;;;;;;3.65;2.78;;;;;;;;;;5010144;28;20057;-64
2023/12/23 08:08:09;;;;;;;4.63;2.53;;;;;;;;;;5011490;28;20499;-63
2023/12/23 08:10:35;;;;;;;6.57;2.97;;;;;;;;;;5011571;28;20018;-68
2023/12/23 08:13:01;;;;;;;5.38;2.83;;;;;;;;;;5011631;28;20030;-66
2023/12/23 08:15:27;;;;;;;5.00;2.80;;;;;;;;;;5011461;28;20380;-64
2023/12/23 08:17:53;;;;;;;4.50;2.58;;;;;;;;;;5011837;28;20052;-64
2023/12/23 08:20:19;;;;;;;3.47;2.50;;;;;;;;;;5025261;28;20150;-64
2023/12/23 08:22:45;;;;;;;4.57;2.25;;;;;;;;;;5025323;28;20018;-64
2023/12/23 08:25:11;;;;;;;3.53;2.45;;;;;;;;;;5010257;28;20049;-64
2023/12/23 08:27:38;;;;;;;3.50;2.67;;;;;;;;;;5011396;28;20044;-64
2023/12/23 08:30:05;;;;;;;3.55;2.55;;;;;;;;;;5011276;28;20072;-76
2023/12/23 08:32:31;;;;;;;3.67;2.45;;;;;;;;;;5009941;28;20345;-68
2023/12/23 08:34:57;;;;;;;4.60;2.75;;;;;;;;;;5011396;28;20041;-68
2023/12/23 08:37:23;;;;;;;4.82;2.85;;;;;;;;;;5011227;28;20022;-67
2023/12/23 08:39:50;;;;;;;4.05;2.13;;;;;;;;;;5012144;28;20018;-66
2023/12/23 08:42:16;;;;;;;3.33;2.22;;;;;;;;;;5012886;28;20014;-67
2023/12/23 08:44:42;;;;;;;3.08;2.58;;;;;;;;;;5014806;28;20029;-67
2023/12/23 08:47:08;;;;;;;6.10;2.60;;;;;;;;;;5014848;28;20029;-67
2023/12/23 08:49:34;;;;;;;3.30;2.20;;;;;;;;;;5015104;28;20412;-67
2023/12/23 08:52:00;;;;;;;5.03;2.53;;;;;;;;;;5014643;28;20108;-67
2023/12/23 08:54:26;;;;;;;3.25;2.35;;;;;;;;;;5014802;28;20051;-67
2023/12/23 08:56:52;;;;;;;3.38;2.33;;;;;;;;;;5014679;28;20073;-67
2023/12/23 08:59:18;;;;;;;3.47;2.45;;;;;;;;;;5014869;28;20105;-67
2023/12/23 09:01:44;;;;;;;3.95;2.40;;;;;;;;;;5013122;28;20388;-67
2023/12/23 09:04:10;;;;;;;4.90;2.85;;;;;;;;;;5014497;28;20045;-67
2023/12/23 09:06:36;;;;;;;3.17;2.42;;;;;;;;;;5014625;28;20026;-66
2023/12/23 09:09:03;;;;;;;5.82;2.58;;;;;;;;;;5002910;28;20419;-66
2023/12/23 09:11:29;;;;;;;5.15;2.42;;;;;;;;;;5011051;28;20045;-66
2023/12/23 09:13:55;;;;;;;5.00;2.22;;;;;;;;;;5014292;28;20034;-67
2023/12/23 09:16:21;;;;;;;3.42;2.65;;;;;;;;;;5009576;28;20045;-66
2023/12/23 09:18:47;;;;;;;4.80;2.78;;;;;;;;;;5010069;28;20105;-67
2023/12/23 09:21:13;;;;;;;5.65;2.25;;;;;;;;;;5009077;28;20466;-66
2023/12/23 09:23:39;;;;;;;3.10;1.95;;;;;;;;;;5012881;28;20101;-66
2023/12/23 09:26:05;;;;;;;5.57;1.98;;;;;;;;;;5025810;28;20547;-66
2023/12/23 09:28:31;;;;;;;3.55;2.05;;;;;;;;;;5023378;28;20091;-66
2023/12/23 09:30:57;;;;;;;4.60;1.88;;;;;;;;;;5007513;28;20049;-66
2023/12/23 09:33:23;;;;;;;3.88;1.90;;;;;;;;;;5014175;28;20069;-66
2023/12/23 09:35:49;;;;;;;4.43;1.77;;;;;;;;;;5012881;28;20117;-66
2023/12/23 09:38:15;;;;;;;5.03;1.83;;;;;;;;;;5017124;28;20055;-65
2023/12/23 09:40:41;;;;;;;4.57;2.13;;;;;;;;;;5010275;28;20049;-66
2023/12/23 09:43:08;;;;;;;4.40;1.45;;;;;;;;;;5023534;28;20519;-66
2023/12/23 09:45:36;;;;;;;2.95;1.55;;;;;;;;;;5026632;28;20127;-66
2023/12/23 09:48:03;;;;;;;3.83;2.00;;;;;;;;;;5000482;28;20041;-66
2023/12/23 09:50:29;;;;;;;3.35;1.52;;;;;;;;;;5012454;28;20465;-65
2023/12/23 09:52:55;;;;;;;1.50;1.30;;;;;;;;;;5010430;28;20042;-66
2023/12/23 09:55:22;;;;;;;3.10;1.45;;;;;;;;;;5012581;28;20092;-74
2023/12/23 09:57:48;;;;;;;1.80;1.50;;;;;;;;;;5013118;28;20399;-74
2023/12/23 10:00:14;;;;;;;2.45;1.58;;;;;;;;;;5012812;28;20041;-76
2023/12/23 10:02:40;;;;;;;1.58;1.20;;;;;;;;;;5013131;28;20030;-75
2023/12/23 10:05:07;;;;;;;1.67;1.17;;;;;;;;;;5012712;28;20045;-74
2023/12/23 10:07:33;;;;;;;6.10;1.33;;;;;;;;;;5012721;28;20384;-74
2023/12/23 10:09:59;;;;;;;1.98;1.17;;;;;;;;;;5012509;28;20088;-74
2023/12/23 10:12:25;;;;;;;2.65;1.30;;;;;;;;;;5012497;28;20162;-74
2023/12/23 10:14:51;;;;;;;3.85;1.38;;;;;;;;;;5012557;28;20459;-74
2023/12/23 10:17:18;;;;;;;2.13;1.50;;;;;;;;;;5043987;28;20357;-75
2023/12/23 10:19:47;;;;;;;3.17;1.45;;;;;;;;;;5012814;28;20487;-74
2023/12/23 10:22:13;;;;;;;2.83;1.55;;;;;;;;;;5015601;28;20034;-73
2023/12/23 10:24:39;;;;;;;4.28;2.00;;;;;;;;;;5022754;28;20030;-73
2023/12/23 10:27:05;;;;;;;3.00;1.40;;;;;;;;;;5012217;28;20041;-74
2023/12/23 10:29:33;;;;;;;3.25;1.70;;;;;;;;;;5012245;28;20025;-73
2023/12/23 10:32:04;;;;;;;3.55;2.10;;;;;;;;;;5012048;28;20131;-73
2023/12/23 10:34:43;;;;;;;4.00;2.03;;;;;;;;;;5006833;28;20061;-77
2023/12/23 10:37:12;;;;;;;4.20;2.05;;;;;;;;;;5014332;28;20135;-68
2023/12/23 10:39:43;;;;;;;5.10;1.60;;;;;;;;;;5011733;28;20440;-69
2023/12/23 10:42:11;;;;;;;2.70;1.92;;;;;;;;;;5025492;28;20040;-69
2023/12/23 10:44:37;;;;;;;3.25;1.55;;;;;;;;;;5012071;28;20033;-65
2023/12/23 10:47:06;;;;;;;4.97;1.85;;;;;;;;;;5009240;28;20065;-67
2023/12/23 10:49:35;;;;;;;4.25;2.17;;;;;;;;;;5014103;28;20022;-66
2023/12/23 10:52:01;;;;;;;4.68;2.88;;;;;;;;;;5020887;28;20115;-67
2023/12/23 10:54:27;;;;;;;8.43;2.58;;;;;;;;;;5009067;28;20069;-66
2023/12/23 10:56:54;;;;;;;4.40;2.42;;;;;;;;;;5008298;28;20045;-66
2023/12/23 10:59:20;;;;;;;5.50;2.60;;;;;;;;;;5003354;28;20081;-73
2023/12/23 11:01:47;;;;;;;3.13;2.20;;;;;;;;;;4998359;28;20029;-73
2023/12/23 11:04:13;;;;;;;10.70;4.00;;;;;;;;;;5011494;28;20038;-61
2023/12/23 11:06:41;;;;;;;5.45;2.72;;;;;;;;;;5016049;28;20029;-76
2023/12/23 11:09:09;;;;;;;8.32;3.05;;;;;;;;;;5019278;28;20133;-76
2023/12/23 11:11:35;;;;;;;5.93;3.00;;;;;;;;;;5011787;28;20061;-75
2023/12/23 11:14:04;;;;;;;3.00;2.45;;;;;;;;;;5011389;28;20128;-76
2023/12/23 11:16:30;;;;;;;3.42;2.50;;;;;;;;;;5003436;28;20064;-75
2023/12/23 11:18:56;;;;;;;2.95;2.45;;;;;;;;;;5009179;28;20038;-75
2023/12/23 11:21:22;;;;;;;3.42;2.10;;;;;;;;;;5004652;28;20030;-76
2023/12/23 11:23:48;;;;;;;2.38;2.08;;;;;;;;;;5006805;28;20194;-67
2023/12/23 11:26:33;;;;;;;5.90;2.13;;;;;;;;;;5000912;28;20053;-65
2023/12/23 11:28:59;;;;;;;2.58;1.85;;;;;;;;;;5011410;28;20030;-67
2023/12/23 11:31:25;;;;;;;7.40;2.40;;;;;;;;;;5024892;28;20036;-66
2023/12/23 11:33:51;;;;;;;2.97;1.75;;;;;;;;;;5011235;28;20050;-67
2023/12/23 11:36:17;;;;;;;3.15;1.70;;;;;;;;;;5013807;28;20022;-66
2023/12/23 11:38:47;;;;;;;6.35;2.70;;;;;;;;;;5010820;28;20038;-67
2023/12/23 11:41:13;;;;;;;3.40;2.40;;;;;;;;;;5010917;28;20030;-60
2023/12/23 11:43:46;;;;;;;3.75;2.53;;;;;;;;;;5011172;28;20036;-56
2023/12/23 11:46:13;;;;;;;3.25;2.10;;;;;;;;;;5011143;28;20472;-56
2023/12/23 11:48:39;;;;;;;3.47;2.83;;;;;;;;;;5011411;28;20061;-57
2023/12/23 11:51:08;;;;;;;3.60;2.80;;;;;;;;;;5011133;28;20469;-55
2023/12/23 11:53:34;;;;;;;4.30;2.47;;;;;;;;;;5023935;28;20127;-57
2023/12/23 11:56:01;;;;;;;4.53;3.03;;;;;;;;;;5023483;28;20100;-57
2023/12/23 11:58:27;;;;;;;6.57;4.70;;;;;;;;;;5009613;28;20456;-60
2023/12/23 12:00:54;;;;;;;5.93;3.83;;;;;;;;;;5010725;28;20392;-60
2023/12/23 12:03:21;;;;;;;13.35;8.70;;;;;;;;;;4997973;28;20034;-60
2023/12/23 12:05:47;;;;;;;4.82;3.05;;;;;;;;;;5006105;28;20030;-60
2023/12/23 12:08:13;;;;;;;4.35;2.30;;;;;;;;;;5007058;28;20091;-60
2023/12/23 12:10:39;;;;;;;4.10;2.85;;;;;;;;;;5009493;28;20124;-60
2023/12/23 12:13:05;;;;;;;3.50;2.38;;;;;;;;;;5019934;28;20125;-60
2023/12/23 12:15:31;;;;;;;3.55;2.60;;;;;;;;;;5009989;28;20604;-60
2023/12/23 12:17:57;;;;;;;3.30;2.67;;;;;;;;;;5012101;28;20022;-60
2023/12/23 12:20:23;;;;;;;4.88;2.70;;;;;;;;;;5011882;28;20427;-60
2023/12/23 12:22:50;;;;;;;8.25;4.80;;;;;;;;;;5016740;28;20064;-59
2023/12/23 12:25:16;;;;;;;4.95;3.53;;;;;;;;;;5021596;28;20116;-59
2023/12/23 12:27:42;;;;;;;3.78;2.28;;;;;;;;;;5012381;28;20036;-60
2023/12/23 12:30:09;;;;;;;4.63;2.53;;;;;;;;;;5031901;28;20494;-60
2023/12/23 12:32:35;;;;;;;4.28;3.10;;;;;;;;;;5015315;28;20515;-60
2023/12/23 12:35:03;;;;;;;6.03;2.97;;;;;;;;;;5017678;28;20029;-60
2023/12/23 12:37:30;;;;;;;6.20;3.17;;;;;;;;;;5016928;28;20057;-60
2023/12/23 12:39:56;;;;;;;4.05;2.83;;;;;;;;;;5011433;28;20028;-60
2023/12/23 12:42:25;;;;;;;4.03;2.67;;;;;;;;;;5011351;28;20071;-60
2023/12/23 12:44:52;;;;;;;5.00;2.30;;;;;;;;;;5010619;28;20153;-60
2023/12/23 12:47:22;;;;;;;5.45;3.15;;;;;;;;;;5011571;28;20077;-60
2023/12/23 12:49:48;;;;;;;4.20;2.55;;;;;;;;;;5012169;28;20100;-60
2023/12/23 12:52:14;;;;;;;3.95;2.83;;;;;;;;;;5011489;28;20034;-60
2023/12/23 12:54:42;;;;;;;5.07;3.50;;;;;;;;;;5010294;28;20115;-60
2023/12/23 12:57:08;;;;;;;6.32;4.03;;;;;;;;;;5010001;28;20022;-59
2023/12/23 12:59:34;;;;;;;7.15;4.97;;;;;;;;;;5009743;28;20087;-59
2023/12/23 13:02:05;;;;;;;5.07;3.67;;;;;;;;;;5003103;28;20439;-59
2023/12/23 13:04:31;;;;;;;6.38;3.47;;;;;;;;;;5011337;28;20029;-60
2023/12/23 13:06:57;;;;;;;4.88;3.72;;;;;;;;;;5018559;28;20142;-60
2023/12/23 13:09:23;;;;;;;5.57;4.20;;;;;;;;;;5019440;28;20439;-60
2023/12/23 13:11:49;;;;;;;5.60;3.70;;;;;;;;;;5013624;28;20029;-60
2023/12/23 13:14:15;;;;;;;7.25;5.07;;;;;;;;;;5014310;28;20501;-60
2023/12/23 13:16:41;;;;;;;5.63;4.32;;;;;;;;;;5013986;28;20025;-60
2023/12/23 13:19:07;;;;;;;6.40;4.78;;;;;;;;;;5014189;28;20033;-60
2023/12/23 13:21:33;;;;;;;7.28;4.95;;;;;;;;;;5014245;28;20021;-60
2023/12/23 13:24:00;;;;;;;5.22;4.53;;;;;;;;;;5014223;28;20056;-59
2023/12/23 13:26:26;;;;;;;7.93;5.07;;;;;;;;;;5013672;28;20118;-60
2023/12/23 13:28:52;;;;;;;7.40;5.28;;;;;;;;;;5012885;28;20161;-59
2023/12/23 13:31:18;;;;;;;5.55;4.63;;;;;;;;;;5012729;28;20239;-59
2023/12/23 13:33:44;;;;;;;5.65;4.65;;;;;;;;;;5012027;28;20050;-59
2023/12/23 13:36:11;;;;;;;6.60;5.03;;;;;;;;;;5010830;28;20522;-59
2023/12/23 13:38:37;;;;;;;6.72;4.45;;;;;;;;;;5012656;28;20022;-59
2023/12/23 13:41:03;;;;;;;6.10;4.75;;;;;;;;;;5012995;28;20384;-58
2023/12/23 13:43:29;;;;;;;8.65;4.78;;;;;;;;;;5009833;28;20034;-59
2023/12/23 13:45:55;;;;;;;10.70;4.68;;;;;;;;;;5010303;28;20014;-59
2023/12/23 13:48:22;;;;;;;6.38;4.00;;;;;;;;;;5023776;28;20063;-59
2023/12/23 13:50:48;;;;;;;6.60;4.78;;;;;;;;;;5012697;28;20044;-59
2023/12/23 13:53:14;;;;;;;5.15;3.80;;;;;;;;;;5012769;28;20034;-59
2023/12/23 13:55:43;;;;;;;5.38;4.22;;;;;;;;;;5004916;28;20026;-59
2023/12/23 13:58:11;;;;;;;7.95;4.28;;;;;;;;;;5013024;28;20032;-59
2023/12/23 14:00:37;;;;;;;6.47;4.25;;;;;;;;;;5016786;28;20472;-59
2023/12/23 14:03:03;;;;;;;5.35;4.15;;;;;;;;;;5012600;28;20361;-59
2023/12/23 14:05:29;;;;;;;5.10;3.72;;;;;;;;;;5012367;28;20384;-59
2023/12/23 14:07:58;;;;;;;4.85;3.65;;;;;;;;;;5012355;28;20026;-59
2023/12/23 14:10:24;;;;;;;5.93;4.30;;;;;;;;;;5011962;28;20025;-59
2023/12/23 14:12:50;;;;;;;5.50;4.40;;;;;;;;;;5011001;28;20037;-59
2023/12/23 14:15:16;;;;;;;5.55;4.03;;;;;;;;;;5012262;28;20021;-59
2023/12/23 14:17:42;;;;;;;4.82;3.70;;;;;;;;;;5010605;28;20136;-59
2023/12/23 14:20:08;;;;;;;6.18;3.67;;;;;;;;;;5007744;28;20022;-60
2023/12/23 14:22:34;;;;;;;8.30;4.55;;;;;;;;;;5002704;28;20383;-60
2023/12/23 14:25:00;;;;;;;5.75;4.43;;;;;;;;;;5012854;28;20030;-59
2023/12/23 14:27:26;;;;;;;4.43;3.80;;;;;;;;;;5010881;28;20022;-59
2023/12/23 14:29:52;;;;;;;9.23;4.18;;;;;;;;;;5012793;28;20471;-60
2023/12/23 14:32:18;;;;;;;7.57;3.33;;;;;;;;;;5012650;28;20116;-59
2023/12/23 14:34:44;;;;;;;5.10;3.50;;;;;;;;;;5012581;28;20068;-59
2023/12/23 14:37:10;;;;;;;4.97;3.03;;;;;;;;;;5012061;28;20510;-59
2023/12/23 14:39:36;;;;;;;6.25;3.65;;;;;;;;;;5012475;28;20098;-59
2023/12/23 14:42:02;;;;;;;5.97;3.63;;;;;;;;;;5009489;28;20109;-59
2023/12/23 14:44:28;;;;;;;5.88;3.92;;;;;;;;;;5012551;28;20490;-59
2023/12/23 14:46:54;;;;;;;6.30;3.42;;;;;;;;;;5011096;28;20437;-59
2023/12/23 14:49:20;;;;;;;5.50;3.33;;;;;;;;;;5012134;28;20093;-59
2023/12/23 14:51:46;;;;;;;4.22;3.30;;;;;;;;;;5009941;28;20742;-59
2023/12/23 14:54:12;;;;;;;5.45;3.10;;;;;;;;;;5011207;28;20030;-60
2023/12/23 14:56:38;;;;;;;4.25;3.38;;;;;;;;;;5011291;28;20026;-59
2023/12/23 14:59:04;;;;;;;5.75;3.05;;;;;;;;;;5002913;28;20093;-58